Latest Weather Observations for Collie East

IDW60801

Issued at 9:02 pm WST Monday 31 August 2015 (issued every 30 minutes, with the page automatically refreshed every 10 minutes)

About weather observations | Map of weather stations | Latest weather observations for WA | Other Formats
Station Details ID: 009994 Name: COLLIE EAST Lat: -33.36 Lon: 116.17 Height: 200.0 m
Data from the previous 72 hours. | See also: Recent months at Collie East
Date/Time
WST
Temp
°C
App
Temp
°C
Dew
Point
Rel
Hum
%
Delta-T
°C
Wind Press
QNH
hPa
Press
MSL
hPa
Rain
since 9 am
mm
Dir
 
Spd
km/h
Gust
km/h
Spd
kts
Gust
kts
31/09:00pm 6.8 4.2 4.1 83 1.2 WSW 7 11 4 6 - - 5.4
31/08:30pm 6.3 4.6 3.8 84 1.1 SW 2 7 1 4 - - 5.4
31/08:00pm 7.3 4.7 4.3 81 1.3 SW 7 13 4 7 - - 5.4
31/07:30pm 7.6 5.3 4.7 82 1.3 WSW 6 11 3 6 - - 5.4
31/07:00pm 7.7 5.9 5.2 84 1.1 W 4 7 2 4 - - 5.4
31/06:30pm 8.3 6.1 5.1 80 1.4 WSW 6 9 3 5 - - 5.4
31/06:00pm 9.3 6.9 5.3 76 1.8 WSW 7 15 4 8 - - 5.4
31/05:30pm 10.0 6.6 6.0 76 1.9 SW 13 24 7 13 - - 5.4
31/05:00pm 10.7 8.2 6.5 75 2.0 W 9 15 5 8 - - 5.4
31/04:30pm 10.5 7.8 7.2 80 1.6 WSW 11 24 6 13 - - 5.4
31/04:00pm 11.4 8.2 6.7 73 2.3 SW 13 30 7 16 - - 5.4
31/03:30pm 11.5 9.4 8.2 80 1.6 SW 9 20 5 11 - - 5.4
31/03:00pm 11.0 8.2 6.9 76 2.0 SW 11 28 6 15 - - 5.2
31/02:30pm 12.7 10.5 8.0 73 2.3 W 9 13 5 7 - - 4.4
31/02:00pm 11.1 9.0 8.1 82 1.5 SW 9 15 5 8 - - 4.4
31/01:30pm 10.6 6.3 7.1 79 1.7 SSW 19 33 10 18 - - 4.4
31/01:00pm 11.1 7.9 8.3 83 1.4 WSW 15 28 8 15 - - 4.4
31/12:30pm 11.1 9.4 9.7 91 0.7 W 9 20 5 11 - - 4.4
31/12:00pm 10.4 8.8 8.8 90 0.8 W 7 15 4 8 - - 3.0
31/11:30am 13.4 10.2 9.8 79 1.9 WNW 17 32 9 17 - - 1.2
31/11:00am 12.2 9.3 9.8 85 1.2 NW 15 26 8 14 - - 1.2
31/10:30am 13.0 10.0 9.3 78 1.9 NW 15 24 8 13 - - 0.2
31/10:00am 12.0 9.3 9.0 82 1.5 WNW 13 24 7 13 - - 0.2
31/09:30am 12.9 10.7 9.2 78 1.9 NW 11 15 6 8 - - 0.0
31/09:00am 10.7 9.1 8.1 84 1.3 W 6 7 3 4 - - 0.0
31/08:30am 9.6 7.8 8.0 90 0.8 NNW 7 11 4 6 - - 0.0
31/08:00am 7.0 6.1 6.1 94 0.4 CALM 0 0 0 0 - - 0.0
31/07:30am 5.5 4.3 4.6 94 0.4 CALM 0 0 0 0 - - 0.0
31/07:00am 4.5 3.1 3.5 93 0.4 CALM 0 0 0 0 - - 0.0
31/06:30am 4.6 3.2 3.6 93 0.4 CALM 0 0 0 0 - - 0.0
31/06:00am 4.5 3.1 3.5 93 0.4 CALM 0 0 0 0 - - 0.0
31/05:30am 5.1 3.8 4.1 93 0.4 CALM 0 0 0 0 - - 0.0
31/05:00am 5.6 4.4 4.6 93 0.4 CALM 0 0 0 0 - - 0.0
31/04:30am 5.9 4.0 4.9 93 0.4 ENE 4 7 2 4 - - 0.0
31/04:00am 4.9 3.6 3.9 93 0.4 CALM 0 0 0 0 - - 0.0
31/03:30am 5.6 4.4 4.6 93 0.4 CALM 0 0 0 0 - - 0.0
31/03:00am 6.8 5.8 5.7 93 0.5 CALM 0 7 0 4 - - 0.0
31/02:30am 6.6 5.6 5.6 93 0.4 CALM 0 0 0 0 - - 0.0
31/02:00am 6.2 5.1 5.2 93 0.4 CALM 0 0 0 0 - - 0.0
31/01:30am 5.3 4.0 4.3 93 0.4 CALM 0 0 0 0 - - 0.0
31/01:00am 4.8 3.4 3.8 93 0.4 CALM 0 0 0 0 - - 0.0
31/12:30am 4.5 3.1 3.5 93 0.4 CALM 0 0 0 0 - - 0.0
31/12:00am 4.9 3.6 3.9 93 0.4 CALM 0 0 0 0 - - 0.0
 
Date/Time
WST
Temp
°C
App
Temp
°C
Dew
Point
Rel
Hum
%
Delta-T
°C
Wind Press
QNH
hPa
Press
MSL
hPa
Rain
since 9 am
mm
Dir
 
Spd
km/h
Gust
km/h
Spd
kts
Gust
kts
30/11:30pm 5.0 3.7 4.0 93 0.4 CALM 0 0 0 0 - - 0.0
30/11:00pm 5.0 3.6 3.8 92 0.5 CALM 0 0 0 0 - - 0.0
30/10:30pm 5.6 4.4 4.4 92 0.5 CALM 0 0 0 0 - - 0.0
30/10:00pm 5.6 4.4 4.4 92 0.5 CALM 0 0 0 0 - - 0.0
30/09:30pm 5.1 3.7 3.8 91 0.6 CALM 0 0 0 0 - - 0.0
30/09:00pm 5.9 4.7 4.5 91 0.6 CALM 0 0 0 0 - - 0.0
30/08:30pm 6.0 4.8 4.5 90 0.7 CALM 0 0 0 0 - - 0.0
30/08:00pm 6.9 5.8 5.1 88 0.8 CALM 0 0 0 0 - - 0.0
30/07:30pm 7.5 6.4 5.1 85 1.1 CALM 0 0 0 0 - - 0.0
30/07:00pm 8.7 7.7 5.6 81 1.4 CALM 0 0 0 0 - - 0.0
30/06:30pm 9.8 8.9 6.0 77 1.8 CALM 0 0 0 0 - - 0.0
30/06:00pm 11.8 10.1 5.7 66 2.9 W 4 7 2 4 - - 0.0
30/05:30pm 13.7 12.0 5.8 59 3.8 WSW 4 9 2 5 - - 0.0
30/05:00pm 13.9 11.6 5.8 58 3.9 SSW 7 13 4 7 - - 0.0
30/04:30pm 14.2 11.5 5.6 56 4.1 W 9 17 5 9 - - 0.0
30/04:00pm 14.4 12.1 5.7 56 4.2 WSW 7 13 4 7 - - 0.0
30/03:30pm 15.3 12.7 6.1 54 4.5 WSW 9 17 5 9 - - 0.0
30/03:00pm 15.9 13.5 6.9 55 4.5 WSW 9 17 5 9 - - 0.0
30/02:30pm 14.1 11.2 6.7 61 3.6 SSW 11 20 6 11 - - 0.0
30/02:00pm 14.7 11.6 3.5 47 5.1 W 9 19 5 10 - - 0.0
30/01:30pm 15.7 12.6 3.8 45 5.5 WSW 9 17 5 9 - - 0.0
30/01:00pm 15.6 12.6 5.8 52 4.8 WSW 11 20 6 11 - - 0.0
30/12:30pm 16.2 13.5 5.8 50 5.1 NNW 9 15 5 8 - - 0.0
30/12:00pm 15.1 13.0 5.6 53 4.6 SSW 6 13 3 7 - - 0.0
30/11:30am 14.4 11.8 6.0 57 4.1 WSW 9 17 5 9 - - 0.0
30/11:00am 13.7 10.6 5.6 58 3.9 SW 11 20 6 11 - - 0.0
30/10:30am 13.7 10.5 5.1 56 4.1 WSW 11 24 6 13 - - 0.0
30/10:00am 13.9 11.0 6.5 61 3.6 WSW 11 19 6 10 - - 0.0
30/09:30am 13.1 10.1 6.2 63 3.3 WSW 11 19 6 10 - - 0.0
30/09:00am 12.5 9.9 7.6 72 2.4 WSW 11 20 6 11 - - 7.6
30/08:30am 11.4 9.9 8.6 83 1.4 SW 6 11 3 6 - - 7.6
30/08:00am 10.2 10.1 9.3 94 0.5 CALM 0 0 0 0 - - 7.6
30/07:30am 7.8 7.0 6.7 93 0.5 CALM 0 0 0 0 - - 7.6
30/07:00am 6.8 5.8 5.6 92 0.5 CALM 0 0 0 0 - - 7.6
30/06:30am 6.9 5.9 5.5 91 0.6 CALM 0 0 0 0 - - 7.6
30/06:00am 8.3 7.6 6.9 91 0.7 CALM 0 0 0 0 - - 7.6
30/05:30am 9.1 8.5 7.5 90 0.8 CALM 0 2 0 1 - - 7.6
30/05:00am 9.8 8.2 8.2 90 0.8 WSW 6 13 3 7 - - 7.6
30/04:30am 10.1 9.1 8.7 91 0.7 WSW 4 7 2 4 - - 7.6
30/04:00am 9.8 9.4 8.2 90 0.8 CALM 0 4 0 2 - - 7.6
30/03:30am 10.8 9.2 8.9 88 1.0 WSW 7 13 4 7 - - 7.6
30/03:00am 11.1 9.4 9.9 92 0.6 W 9 17 5 9 - - 7.4
30/02:30am 10.7 10.2 9.5 92 0.6 NW 2 6 1 3 - - 7.4
30/02:00am 10.8 10.7 9.6 92 0.6 CALM 0 7 0 4 - - 7.4
30/01:30am 11.3 11.3 9.7 90 0.8 CALM 0 0 0 0 - - 7.4
30/01:00am 12.0 10.8 10.4 90 0.8 WNW 7 11 4 6 - - 7.4
30/12:30am 12.0 10.1 10.4 90 0.8 W 11 20 6 11 - - 7.4
30/12:00am 12.8 12.2 11.7 93 0.6 NNW 6 9 3 5 - - 6.6
 
Date/Time
WST
Temp
°C
App
Temp
°C
Dew
Point
Rel
Hum
%
Delta-T
°C
Wind Press
QNH
hPa
Press
MSL
hPa
Rain
since 9 am
mm
Dir
 
Spd
km/h
Gust
km/h
Spd
kts
Gust
kts
29/11:30pm 12.8 11.6 11.7 93 0.6 N 9 11 5 6 - - 6.6
29/11:00pm 12.8 13.3 11.7 93 0.6 CALM 0 6 0 3 - - 6.4
29/10:30pm 13.0 13.6 11.9 93 0.6 CALM 0 4 0 2 - - 6.4
29/10:00pm 13.1 13.0 12.0 93 0.6 N 4 6 2 3 - - 6.4
29/09:30pm 13.3 13.2 12.0 92 0.7 WNW 4 9 2 5 - - 6.2
29/09:00pm 13.5 13.0 12.2 92 0.7 WNW 6 9 3 5 - - 6.2
29/08:30pm 13.8 13.4 12.5 92 0.7 W 6 9 3 5 - - 6.0
29/08:00pm 14.0 14.1 12.7 92 0.7 W 4 9 2 5 - - 5.4
29/07:30pm 14.0 13.0 12.4 90 0.9 NW 9 13 5 7 - - 3.8
29/07:00pm 14.1 13.2 12.5 90 0.9 NW 9 13 5 7 - - 3.8
29/06:30pm 14.6 12.0 12.1 85 1.4 NNW 17 22 9 12 - - 3.6
29/06:00pm 15.5 13.2 11.7 78 2.1 NNW 15 24 8 13 - - 3.4
29/05:30pm 15.5 14.4 12.1 80 1.9 NW 9 15 5 8 - - 3.4
29/05:00pm 16.0 14.0 11.6 75 2.4 WNW 13 24 7 13 - - 3.4
29/04:30pm 16.2 13.9 11.8 75 2.4 NW 15 24 8 13 - - 3.4
29/04:00pm 16.9 15.1 12.2 74 2.6 W 13 28 7 15 - - 3.4
29/03:30pm 17.5 15.3 12.2 71 3.0 WNW 15 30 8 16 - - 3.4
29/03:00pm 17.7 15.4 13.0 74 2.7 WNW 17 28 9 15 - - 3.4
29/02:30pm 17.0 14.7 14.1 83 1.7 WNW 19 41 10 22 - - 3.4
29/02:00pm 17.9 15.2 14.6 81 1.9 NW 22 41 12 22 - - 2.4
29/01:30pm 17.3 13.6 13.8 80 2.0 NNW 26 41 14 22 - - 2.2
29/01:00pm 17.1 14.6 14.0 82 1.8 NNW 20 39 11 21 - - 2.2
29/12:30pm 16.5 13.9 13.8 84 1.5 NNW 20 35 11 19 - - 2.2
29/12:00pm 17.3 15.3 14.0 81 1.9 N 17 32 9 17 - - 1.0
29/11:30am 16.9 14.7 13.2 79 2.1 N 17 30 9 16 - - 0.4
29/11:00am 17.7 15.5 13.4 76 2.4 N 17 30 9 16 - - 0.0
29/10:30am 18.5 17.3 15.0 80 2.1 N 15 24 8 13 - - 0.0
29/10:00am 16.4 15.4 13.5 83 1.6 N 11 17 6 9 - - 0.0
29/09:30am 15.8 14.8 13.5 86 1.3 N 11 17 6 9 - - 0.0
29/09:00am 15.4 14.8 13.6 89 1.0 N 9 13 5 7 - - 0.6
29/08:30am 14.3 13.6 13.3 94 0.6 N 9 13 5 7 - - 0.6
29/08:00am 11.5 11.7 10.7 95 0.4 CALM 0 0 0 0 - - 0.6
29/07:30am 9.5 9.2 8.7 95 0.4 CALM 0 0 0 0 - - 0.6
29/07:00am 7.8 7.1 6.9 94 0.4 CALM 0 0 0 0 - - 0.6
29/06:30am 7.5 6.7 6.6 94 0.4 CALM 0 0 0 0 - - 0.6
29/06:00am 7.8 7.1 6.9 94 0.4 CALM 0 0 0 0 - - 0.6
29/05:30am 8.0 7.3 7.1 94 0.4 CALM 0 0 0 0 - - 0.6
29/05:00am 8.0 7.3 7.1 94 0.4 CALM 0 0 0 0 - - 0.6
29/04:30am 7.8 7.1 6.9 94 0.4 CALM 0 0 0 0 - - 0.6
29/04:00am 7.9 7.2 7.0 94 0.4 CALM 0 0 0 0 - - 0.6
29/03:30am 7.6 6.8 6.7 94 0.4 CALM 0 0 0 0 - - 0.6
29/03:00am 7.5 6.7 6.4 93 0.5 CALM 0 0 0 0 - - 0.6
29/02:30am 7.9 7.2 6.8 93 0.5 CALM 0 0 0 0 - - 0.6
29/02:00am 8.4 7.8 7.3 93 0.5 CALM 0 0 0 0 - - 0.6
29/01:30am 8.5 7.9 7.4 93 0.5 CALM 0 0 0 0 - - 0.6
29/01:00am 8.9 8.4 8.0 94 0.4 CALM 0 0 0 0 - - 0.6
29/12:30am 9.0 8.6 8.1 94 0.4 CALM 0 0 0 0 - - 0.6
29/12:00am 8.8 8.3 7.9 94 0.4 CALM 0 0 0 0 - - 0.6
 
Date/Time
WST
Temp
°C
App
Temp
°C
Dew
Point
Rel
Hum
%
Delta-T
°C
Wind Press
QNH
hPa
Press
MSL
hPa
Rain
since 9 am
mm
Dir
 
Spd
km/h
Gust
km/h
Spd
kts
Gust
kts
28/11:30pm 8.1 7.4 7.0 93 0.5 CALM 0 0 0 0 - - 0.6
28/11:00pm 8.4 7.8 7.3 93 0.5 CALM 0 0 0 0 - - 0.6
28/10:30pm 8.5 7.9 7.4 93 0.5 CALM 0 0 0 0 - - 0.6
28/10:00pm 8.2 7.5 7.0 92 0.6 CALM 0 0 0 0 - - 0.6
28/09:30pm 8.5 7.9 7.3 92 0.6 CALM 0 0 0 0 - - 0.6

Other Formats:

Comma delimited format used in spreadsheet applications
http://www.bom.gov.au/fwo/IDW60801/IDW60801.95621.axf

JavaScript Object Notation format (JSON) in row-major order
http://www.bom.gov.au/fwo/IDW60801/IDW60801.95621.json